createdAt,value
2019-05-17T00:00:37.369Z,13.60
2019-05-17T00:03:07.068Z,13.60
2019-05-17T00:05:37.525Z,13.50
2019-05-17T00:08:07.625Z,13.50
2019-05-17T00:10:37.503Z,13.50
2019-05-17T00:13:07.542Z,13.50
2019-05-17T00:15:36.947Z,13.50
2019-05-17T00:18:06.762Z,13.40
2019-05-17T00:20:37.424Z,13.50
2019-05-17T00:23:06.998Z,13.40
2019-05-17T00:25:36.914Z,13.50
2019-05-17T00:28:07.258Z,13.50
2019-05-17T00:30:37.362Z,13.50
2019-05-17T00:33:07.796Z,13.50
2019-05-17T00:35:37.682Z,13.50
2019-05-17T00:38:08.044Z,13.50
2019-05-17T00:40:36.910Z,13.50
2019-05-17T00:43:06.838Z,13.40
2019-05-17T00:45:37.639Z,13.40
2019-05-17T00:48:06.618Z,13.40
2019-05-17T00:50:37.938Z,13.30
2019-05-17T00:53:07.172Z,13.20
2019-05-17T00:55:36.493Z,13.20
2019-05-17T00:58:06.775Z,13.20
2019-05-17T01:00:37.532Z,13.20
2019-05-17T01:03:07.025Z,13.20
2019-05-17T01:05:36.976Z,13.10
2019-05-17T01:08:07.309Z,13.10
2019-05-17T01:10:36.883Z,13.10
2019-05-17T01:13:06.747Z,13.10
2019-05-17T01:15:36.890Z,13.10
2019-05-17T01:18:07.266Z,13.20
2019-05-17T01:20:36.959Z,13.10
2019-05-17T01:23:07.528Z,13.10
2019-05-17T01:25:37.041Z,13.10
2019-05-17T01:28:07.634Z,13.00
2019-05-17T01:30:37.477Z,13.00
2019-05-17T01:33:06.727Z,12.80
2019-05-17T01:35:37.501Z,12.70
2019-05-17T01:38:07.413Z,12.60
2019-05-17T01:40:37.318Z,12.50
2019-05-17T01:43:07.973Z,12.40
2019-05-17T01:45:36.705Z,12.30
2019-05-17T01:48:07.315Z,12.20
2019-05-17T01:50:37.393Z,12.10
2019-05-17T01:53:07.474Z,12.00
2019-05-17T01:55:37.533Z,11.90
2019-05-17T01:58:07.531Z,11.90
2019-05-17T02:00:37.532Z,11.80
2019-05-17T02:03:07.187Z,11.70
2019-05-17T02:05:37.194Z,11.70
2019-05-17T02:08:06.852Z,11.60
2019-05-17T02:10:37.624Z,11.50
2019-05-17T02:13:06.788Z,11.40
2019-05-17T02:15:37.745Z,11.30
2019-05-17T02:18:07.008Z,11.30
2019-05-17T02:20:37.316Z,11.30
2019-05-17T02:23:07.295Z,11.30
2019-05-17T02:25:36.889Z,11.20
2019-05-17T02:28:06.042Z,11.10
2019-05-17T02:30:34.844Z,11.10
2019-05-17T02:33:04.380Z,11.00
2019-05-17T02:35:33.853Z,11.00
2019-05-17T02:38:03.276Z,11.00
2019-05-17T02:40:34.203Z,10.90
2019-05-17T02:43:03.365Z,10.80
2019-05-17T02:45:33.174Z,10.80
2019-05-17T02:48:03.818Z,10.80
2019-05-17T02:50:33.341Z,10.70
2019-05-17T02:53:04.351Z,10.70
2019-05-17T02:55:33.381Z,10.70
2019-05-17T02:58:03.391Z,10.70
2019-05-17T03:00:33.887Z,10.70
2019-05-17T03:03:03.573Z,10.60
2019-05-17T03:05:33.948Z,10.50
2019-05-17T03:08:03.962Z,10.50
2019-05-17T03:10:33.828Z,10.50
2019-05-17T03:13:04.117Z,10.40
2019-05-17T03:15:33.476Z,10.40
2019-05-17T03:18:03.603Z,10.40
2019-05-17T03:20:33.007Z,10.40
2019-05-17T03:23:03.810Z,10.40
2019-05-17T03:25:33.451Z,10.30
2019-05-17T03:28:03.305Z,10.20
2019-05-17T03:30:36.610Z,10.20
2019-05-17T03:33:07.384Z,10.20
2019-05-17T03:35:37.545Z,10.20
2019-05-17T03:38:05.487Z,10.20
2019-05-17T03:41:01.883Z,10.10
2019-05-17T03:43:04.643Z,10.20
2019-05-17T03:45:34.222Z,10.10
2019-05-17T03:48:04.846Z,10.10
2019-05-17T03:50:33.954Z,10.20
2019-05-17T03:53:02.890Z,10.10
2019-05-17T03:55:33.347Z,10.10
2019-05-17T03:58:03.133Z,10.20
2019-05-17T04:00:35.358Z,10.10
2019-05-17T04:03:03.366Z,10.10
2019-05-17T04:05:33.324Z,10.10
2019-05-17T04:08:03.918Z,10.10
2019-05-17T04:10:33.897Z,10.10
2019-05-17T04:13:04.399Z,10.10
2019-05-17T04:15:33.850Z,10.10
2019-05-17T04:18:04.174Z,10.20
2019-05-17T04:20:33.825Z,10.20
2019-05-17T04:23:04.067Z,10.30
2019-05-17T04:25:34.045Z,10.40
2019-05-17T04:28:03.735Z,10.50
2019-05-17T04:30:33.185Z,10.60
2019-05-17T04:33:03.554Z,10.70
2019-05-17T04:35:33.174Z,10.80
2019-05-17T04:38:04.338Z,10.90
2019-05-17T04:40:34.185Z,10.90
2019-05-17T04:43:03.848Z,11.00
2019-05-17T04:45:33.867Z,11.10
2019-05-17T04:48:04.233Z,11.20
2019-05-17T04:50:34.353Z,11.20
2019-05-17T04:53:03.596Z,11.30
2019-05-17T04:55:34.259Z,11.40
2019-05-17T04:58:04.313Z,11.40
2019-05-17T05:00:34.396Z,11.50
2019-05-17T05:03:04.538Z,11.50
2019-05-17T05:05:34.081Z,11.60
2019-05-17T05:08:03.638Z,11.70
2019-05-17T05:10:34.827Z,11.70
2019-05-17T05:13:04.056Z,11.80
2019-05-17T05:15:43.381Z,11.80
2019-05-17T05:18:13.307Z,11.90
2019-05-17T05:20:43.455Z,11.90
2019-05-17T05:23:13.544Z,12.00
2019-05-17T05:25:43.297Z,12.00
2019-05-17T05:28:13.251Z,12.10
2019-05-17T05:30:42.518Z,12.20
2019-05-17T05:33:12.943Z,12.20
2019-05-17T05:35:42.804Z,12.10
2019-05-17T05:38:12.994Z,12.00
2019-05-17T05:40:43.666Z,11.90
2019-05-17T05:43:13.011Z,11.90
2019-05-17T05:45:42.284Z,11.90
2019-05-17T05:48:12.777Z,11.90
2019-05-17T05:50:43.156Z,12.00
2019-05-17T05:53:13.279Z,12.00
2019-05-17T05:55:43.308Z,12.00
2019-05-17T05:58:13.065Z,12.10
2019-05-17T06:00:42.963Z,12.10
2019-05-17T06:03:12.408Z,12.10
2019-05-17T06:05:42.413Z,12.10
2019-05-17T06:08:12.302Z,12.10
2019-05-17T06:10:42.545Z,12.10
2019-05-17T06:13:13.158Z,12.10
2019-05-17T06:15:42.982Z,12.20
2019-05-17T06:18:12.558Z,12.20
2019-05-17T06:20:42.075Z,12.20
2019-05-17T06:23:12.226Z,12.10
2019-05-17T06:25:43.677Z,12.10
2019-05-17T06:28:12.623Z,12.20
2019-05-17T06:30:42.956Z,12.30
2019-05-17T06:33:26.672Z,12.50
2019-05-17T06:35:43.227Z,12.60
2019-05-17T06:38:12.422Z,12.60
2019-05-17T06:40:42.212Z,12.70
2019-05-17T06:43:13.008Z,12.80
2019-05-17T06:45:42.453Z,12.80
2019-05-17T06:48:11.971Z,12.90
2019-05-17T06:50:42.898Z,12.90
2019-05-17T06:53:12.693Z,13.00
2019-05-17T06:55:42.684Z,13.20
2019-05-17T06:58:12.381Z,13.30
2019-05-17T07:00:41.676Z,13.30
2019-05-17T07:03:11.020Z,13.40
2019-05-17T07:05:41.732Z,13.50
2019-05-17T07:08:11.123Z,13.60
2019-05-17T07:10:40.410Z,13.60
2019-05-17T07:13:10.673Z,13.70
2019-05-17T07:15:47.353Z,13.90
2019-05-17T07:18:11.048Z,14.00
2019-05-17T07:20:40.253Z,14.20
2019-05-17T07:23:10.813Z,14.40
2019-05-17T07:25:40.143Z,14.70
2019-05-17T07:28:10.133Z,14.80
2019-05-17T07:30:40.206Z,15.00
2019-05-17T07:33:10.461Z,15.10
2019-05-17T07:35:39.909Z,15.10
2019-05-17T07:38:10.592Z,15.20
2019-05-17T07:40:40.242Z,15.30
2019-05-17T07:43:13.922Z,15.50
2019-05-17T07:45:40.684Z,15.60
2019-05-17T07:48:10.149Z,15.50
2019-05-17T07:50:39.861Z,15.40
2019-05-17T07:53:11.207Z,15.60
2019-05-17T07:55:40.414Z,15.70
2019-05-17T07:58:10.101Z,15.80
2019-05-17T08:00:40.183Z,15.90
2019-05-17T08:03:12.943Z,16.10
2019-05-17T08:05:40.875Z,16.20
2019-05-17T08:08:10.505Z,16.10
2019-05-17T08:10:41.067Z,16.40
2019-05-17T08:13:25.657Z,16.60
2019-05-17T08:15:42.110Z,16.70
2019-05-17T08:18:11.629Z,16.90
2019-05-17T08:20:41.060Z,17.10
2019-05-17T08:23:11.254Z,17.40
2019-05-17T08:25:52.023Z,17.50
2019-05-17T08:28:11.307Z,17.50
2019-05-17T08:30:41.166Z,17.60
2019-05-17T08:33:11.309Z,17.50
2019-05-17T08:35:41.035Z,17.80
2019-05-17T08:38:10.609Z,18.00
2019-05-17T08:40:40.650Z,18.80
2019-05-17T08:43:10.277Z,19.40
2019-05-17T08:45:40.630Z,20.00
2019-05-17T08:48:10.214Z,20.70
2019-05-17T08:50:40.263Z,21.10
2019-05-17T08:53:10.598Z,21.30
2019-05-17T08:55:41.238Z,21.70
2019-05-17T08:58:10.981Z,21.80
2019-05-17T09:00:40.808Z,22.00
2019-05-17T09:03:10.705Z,22.30
2019-05-17T09:05:41.723Z,22.60
2019-05-17T09:08:11.271Z,23.00
2019-05-17T09:10:41.173Z,23.20
2019-05-17T09:13:14.017Z,23.70
2019-05-17T09:15:41.117Z,23.90
2019-05-17T09:18:10.115Z,24.20
2019-05-17T09:20:40.496Z,24.70
2019-05-17T09:23:10.084Z,24.60
2019-05-17T09:25:39.893Z,24.60
2019-05-17T09:28:10.199Z,24.40
2019-05-17T09:30:40.594Z,24.70
2019-05-17T09:33:11.297Z,24.90
2019-05-17T09:35:41.244Z,25.30
2019-05-17T09:38:11.053Z,25.30
2019-05-17T09:40:40.445Z,25.20
2019-05-17T09:43:10.324Z,25.70
2019-05-17T09:45:40.555Z,26.00
2019-05-17T09:48:10.587Z,26.20
2019-05-17T09:50:40.193Z,26.50
2019-05-17T09:53:10.824Z,25.90
2019-05-17T09:55:40.081Z,26.20
2019-05-17T09:58:09.869Z,26.70
2019-05-17T10:00:39.450Z,27.10
2019-05-17T10:03:09.830Z,26.70
2019-05-17T10:05:40.558Z,26.60
2019-05-17T10:08:10.918Z,26.50
2019-05-17T10:10:40.578Z,26.50
2019-05-17T10:13:10.048Z,26.60
2019-05-17T10:15:40.939Z,27.00
2019-05-17T10:18:11.146Z,26.10
2019-05-17T10:20:40.227Z,25.00
2019-05-17T10:23:10.570Z,25.40
2019-05-17T10:25:40.395Z,25.90
2019-05-17T10:28:10.043Z,25.80
2019-05-17T10:30:40.096Z,24.90
2019-05-17T10:33:09.971Z,24.00
2019-05-17T10:35:40.627Z,23.10
2019-05-17T10:38:10.513Z,22.80
2019-05-17T10:40:40.807Z,23.70
2019-05-17T10:43:10.558Z,24.40
2019-05-17T10:45:40.209Z,23.80
2019-05-17T10:48:10.439Z,23.00
2019-05-17T10:50:40.641Z,23.40
2019-05-17T10:53:10.405Z,24.50
2019-05-17T10:55:39.874Z,24.10
2019-05-17T10:58:10.078Z,23.50
2019-05-17T11:00:41.295Z,22.80
2019-05-17T11:03:10.552Z,22.40
2019-05-17T11:05:40.372Z,22.30
2019-05-17T11:08:10.679Z,22.10
2019-05-17T11:10:40.482Z,22.30
2019-05-17T11:13:09.657Z,22.90
2019-05-17T11:15:38.947Z,22.50
2019-05-17T11:18:08.215Z,22.30
2019-05-17T11:20:37.503Z,22.20
2019-05-17T11:23:06.852Z,22.20
2019-05-17T11:25:35.917Z,22.60
2019-05-17T11:28:05.429Z,22.50
2019-05-17T11:30:34.842Z,22.30
2019-05-17T11:33:04.082Z,22.20
2019-05-17T11:35:33.312Z,22.10
2019-05-17T11:38:02.660Z,22.10
2019-05-17T11:40:32.047Z,22.00
2019-05-17T11:43:01.360Z,21.90
2019-05-17T11:45:32.826Z,21.90
2019-05-17T11:48:01.404Z,21.90
2019-05-17T11:50:30.651Z,21.80
2019-05-17T11:52:59.806Z,21.70
2019-05-17T11:55:29.131Z,21.80
2019-05-17T11:57:58.146Z,21.80
2019-05-17T12:00:28.131Z,21.90
2019-05-17T12:02:57.326Z,21.80
2019-05-17T12:05:26.517Z,21.60
2019-05-17T12:07:55.923Z,21.50
2019-05-17T12:10:25.024Z,21.40
2019-05-17T12:12:54.320Z,21.40
2019-05-17T12:15:23.636Z,21.20
2019-05-17T12:17:52.910Z,21.40
2019-05-17T12:20:23.374Z,21.60
2019-05-17T12:22:52.509Z,21.90
2019-05-17T12:25:21.802Z,22.60
2019-05-17T12:27:51.001Z,24.00
2019-05-17T12:30:20.493Z,25.10
2019-05-17T12:32:49.516Z,25.60
2019-05-17T12:35:18.645Z,26.10
2019-05-17T12:37:47.763Z,27.10
2019-05-17T12:40:17.321Z,27.70
2019-05-17T12:42:46.400Z,28.20
2019-05-17T12:45:15.763Z,28.70
2019-05-17T12:47:44.889Z,28.10
2019-05-17T12:50:14.135Z,28.60
2019-05-17T12:52:43.215Z,28.30
2019-05-17T12:55:12.636Z,27.20
2019-05-17T12:57:41.892Z,26.50
2019-05-17T13:00:11.703Z,25.60
2019-05-17T13:02:40.799Z,25.00
2019-05-17T13:05:10.098Z,24.30
2019-05-17T13:07:40.536Z,23.90
2019-05-17T13:10:10.353Z,23.80
2019-05-17T13:12:39.514Z,23.70
2019-05-17T13:15:08.936Z,23.30
2019-05-17T13:17:38.155Z,23.10
2019-05-17T13:20:09.123Z,23.10
2019-05-17T13:22:38.475Z,23.20
2019-05-17T13:25:10.983Z,23.30
2019-05-17T13:27:40.170Z,23.50
2019-05-17T13:30:12.288Z,23.90
2019-05-17T13:32:41.727Z,24.20
2019-05-17T13:35:11.091Z,24.20
2019-05-17T13:37:40.284Z,23.90
2019-05-17T13:40:10.069Z,23.70
2019-05-17T13:42:39.441Z,23.40
2019-05-17T13:45:09.911Z,23.20
2019-05-17T13:47:39.118Z,24.10
2019-05-17T13:50:09.095Z,25.60
2019-05-17T13:52:38.178Z,25.50
2019-05-17T13:55:07.830Z,25.10
2019-05-17T13:57:37.028Z,24.80
2019-05-17T14:00:07.789Z,25.10
2019-05-17T14:02:36.947Z,25.00
2019-05-17T14:05:09.101Z,24.70
2019-05-17T14:07:38.215Z,24.30
2019-05-17T14:10:07.628Z,24.20
2019-05-17T14:12:36.923Z,24.50
2019-05-17T14:15:08.699Z,25.40
2019-05-17T14:17:37.732Z,25.70
2019-05-17T14:20:07.563Z,25.60
2019-05-17T14:22:36.917Z,25.20
2019-05-17T14:25:07.294Z,24.60
2019-05-17T14:27:36.803Z,23.90
2019-05-17T14:30:07.552Z,23.50
2019-05-17T14:32:36.855Z,23.20
2019-05-17T14:35:06.672Z,23.50
2019-05-17T14:37:35.843Z,23.70
2019-05-17T14:40:07.773Z,23.50
2019-05-17T14:42:36.937Z,23.20
2019-05-17T14:45:07.853Z,23.00
2019-05-17T14:47:37.123Z,22.90
2019-05-17T14:50:07.242Z,23.00
2019-05-17T14:52:36.380Z,23.10
2019-05-17T14:55:05.470Z,24.20
2019-05-17T14:57:34.694Z,25.10
2019-05-17T15:00:04.514Z,24.90
2019-05-17T15:02:33.956Z,24.80
2019-05-17T15:05:03.368Z,24.70
2019-05-17T15:07:32.610Z,24.70
2019-05-17T15:10:01.881Z,24.50
2019-05-17T15:12:31.129Z,24.10
2019-05-17T15:15:00.164Z,23.70
2019-05-17T15:17:29.356Z,23.40
2019-05-17T15:19:58.608Z,23.10
2019-05-17T15:22:27.849Z,22.90
2019-05-17T15:24:57.227Z,22.80
2019-05-17T15:27:26.364Z,22.80
2019-05-17T15:29:55.917Z,22.90
2019-05-17T15:32:25.069Z,22.80
2019-05-17T15:34:54.293Z,22.90
2019-05-17T15:37:23.708Z,23.20
2019-05-17T15:39:53.096Z,23.30
2019-05-17T15:42:22.262Z,23.60
2019-05-17T15:44:51.684Z,23.80
2019-05-17T15:47:20.775Z,24.10
2019-05-17T15:49:50.962Z,24.20
2019-05-17T15:52:20.109Z,24.20
2019-05-17T15:54:49.377Z,23.60
2019-05-17T15:57:18.553Z,23.20
2019-05-17T15:59:47.852Z,23.10
2019-05-17T16:02:17.229Z,22.90
2019-05-17T16:04:46.403Z,22.80
2019-05-17T16:07:15.724Z,22.60
2019-05-17T16:09:45.028Z,22.40
2019-05-17T16:12:14.417Z,22.20
2019-05-17T16:14:43.859Z,22.00
2019-05-17T16:17:13.043Z,22.00
2019-05-17T16:19:42.340Z,21.90
2019-05-17T16:22:11.573Z,21.80
2019-05-17T16:24:40.615Z,21.70
2019-05-17T16:27:09.767Z,21.70
2019-05-17T16:29:38.868Z,21.70
2019-05-17T16:32:08.210Z,21.70
2019-05-17T16:34:37.340Z,21.60
2019-05-17T16:37:06.454Z,21.50
2019-05-17T16:39:35.688Z,21.70
2019-05-17T16:42:04.918Z,21.70
2019-05-17T16:44:34.095Z,21.80
2019-05-17T16:47:03.204Z,22.10
2019-05-17T16:49:32.179Z,22.30
2019-05-17T16:52:01.429Z,22.50
2019-05-17T16:54:30.550Z,22.60
2019-05-17T16:56:59.944Z,22.30
2019-05-17T16:59:29.182Z,22.20
2019-05-17T17:01:58.567Z,22.00
2019-05-17T17:04:27.901Z,21.90
2019-05-17T17:06:56.968Z,21.80
2019-05-17T17:09:25.996Z,21.70
2019-05-17T17:11:55.340Z,21.50
2019-05-17T17:14:24.562Z,21.40
2019-05-17T17:16:53.852Z,21.30
2019-05-17T17:19:23.117Z,21.20
2019-05-17T17:21:52.397Z,21.10
2019-05-17T17:24:21.835Z,20.90
2019-05-17T17:26:51.051Z,20.90
2019-05-17T17:29:20.351Z,20.80
2019-05-17T17:31:49.757Z,20.90
2019-05-17T17:34:18.809Z,20.90
2019-05-17T17:36:48.159Z,20.90
2019-05-17T17:39:17.576Z,20.80
2019-05-17T17:41:46.766Z,20.80
2019-05-17T17:44:16.060Z,20.80
2019-05-17T17:46:45.307Z,20.90
2019-05-17T17:49:15.625Z,20.80
2019-05-17T17:51:44.554Z,20.80
2019-05-17T17:54:13.754Z,20.70
2019-05-17T17:56:43.049Z,20.50
2019-05-17T17:59:12.287Z,20.40
2019-05-17T18:01:41.624Z,20.30
2019-05-17T18:04:10.819Z,20.20
2019-05-17T18:06:40.132Z,20.10
2019-05-17T18:09:09.563Z,20.00
2019-05-17T18:11:38.748Z,19.90
2019-05-17T18:14:13.282Z,19.80
2019-05-17T18:16:38.742Z,19.70
2019-05-17T18:19:08.050Z,19.70
2019-05-17T18:21:37.747Z,19.60
2019-05-17T18:24:06.872Z,19.60
2019-05-17T18:26:36.105Z,19.50
2019-05-17T18:29:07.999Z,19.50
2019-05-17T18:31:36.355Z,19.40
2019-05-17T18:34:05.647Z,19.40
2019-05-17T18:36:34.953Z,19.30
2019-05-17T18:39:06.216Z,19.30
2019-05-17T18:41:35.529Z,19.30
2019-05-17T18:44:04.860Z,19.20
2019-05-17T18:46:34.109Z,19.20
2019-05-17T18:49:03.318Z,19.10
2019-05-17T18:51:32.479Z,19.00
2019-05-17T18:54:02.155Z,19.00
2019-05-17T18:56:31.355Z,18.90
2019-05-17T18:59:00.363Z,18.90
2019-05-17T19:01:29.645Z,18.80
2019-05-17T19:03:58.769Z,18.80
2019-05-17T19:06:27.985Z,18.80
2019-05-17T19:08:57.293Z,18.70
2019-05-17T19:11:26.659Z,18.60
2019-05-17T19:13:55.895Z,18.50
2019-05-17T19:16:24.911Z,18.40
2019-05-17T19:18:54.143Z,18.30
2019-05-17T19:21:23.250Z,18.20
2019-05-17T19:23:52.528Z,18.10
2019-05-17T19:26:21.795Z,18.00
2019-05-17T19:28:51.035Z,18.00
2019-05-17T19:31:20.298Z,17.90
2019-05-17T19:33:49.680Z,17.70
2019-05-17T19:36:18.680Z,17.70
2019-05-17T19:38:47.474Z,17.60
2019-05-17T19:41:16.269Z,17.60
2019-05-17T19:43:45.033Z,17.50
2019-05-17T19:46:13.724Z,17.50
2019-05-17T19:48:42.731Z,17.40
2019-05-17T19:51:11.669Z,17.40
2019-05-17T19:53:41.128Z,17.40
2019-05-17T19:56:09.768Z,17.40
2019-05-17T19:58:38.394Z,17.50
2019-05-17T20:01:07.050Z,17.50
2019-05-17T20:03:35.588Z,17.40
2019-05-17T20:06:04.311Z,17.40
2019-05-17T20:08:32.961Z,17.40
2019-05-17T20:11:01.599Z,17.40
2019-05-17T20:13:30.217Z,17.40
2019-05-17T20:15:58.833Z,17.40
2019-05-17T20:18:27.420Z,17.30
2019-05-17T20:20:56.112Z,17.30
2019-05-17T20:23:24.910Z,17.30
2019-05-17T20:25:53.579Z,17.30
2019-05-17T20:28:22.296Z,17.20
2019-05-17T20:30:50.909Z,17.10
2019-05-17T20:33:19.592Z,17.10
2019-05-17T20:35:48.328Z,17.10
2019-05-17T20:38:17.086Z,17.10
2019-05-17T20:40:45.839Z,17.10
2019-05-17T20:43:14.424Z,17.10
2019-05-17T20:45:43.098Z,17.10
2019-05-17T20:48:11.830Z,17.10
2019-05-17T20:50:40.526Z,17.10
2019-05-17T20:53:18.383Z,17.10
2019-05-17T20:55:39.649Z,16.90
2019-05-17T20:58:08.267Z,16.80
2019-05-17T21:00:37.030Z,16.90
2019-05-17T21:03:05.838Z,16.80
2019-05-17T21:05:34.500Z,16.90
2019-05-17T21:08:03.297Z,16.90
2019-05-17T21:10:32.057Z,16.80
2019-05-17T21:13:00.816Z,16.70
2019-05-17T21:15:29.528Z,16.60
2019-05-17T21:17:58.230Z,16.30
2019-05-17T21:20:26.831Z,16.00
2019-05-17T21:22:55.572Z,15.80
2019-05-17T21:25:24.328Z,15.60
2019-05-17T21:27:53.051Z,15.30
2019-05-17T21:30:21.700Z,15.30
2019-05-17T21:32:50.361Z,15.20
2019-05-17T21:35:18.981Z,15.10
2019-05-17T21:37:47.679Z,14.90
2019-05-17T21:40:16.623Z,14.60
2019-05-17T21:42:45.381Z,14.50
2019-05-17T21:45:14.222Z,14.40
2019-05-17T21:47:42.776Z,14.40
2019-05-17T21:50:11.493Z,14.40
2019-05-17T21:52:40.108Z,14.50
2019-05-17T21:55:09.427Z,14.70
2019-05-17T21:57:38.142Z,14.70
2019-05-17T22:00:09.969Z,14.60
2019-05-17T22:02:38.690Z,14.60
2019-05-17T22:05:07.654Z,14.50
2019-05-17T22:07:36.515Z,14.50
2019-05-17T22:10:06.711Z,14.40
2019-05-17T22:12:35.469Z,14.40
2019-05-17T22:15:05.466Z,14.30
2019-05-17T22:17:34.070Z,14.30
2019-05-17T22:20:02.729Z,14.30
2019-05-17T22:22:31.371Z,14.20
2019-05-17T22:25:03.014Z,14.10
2019-05-17T22:27:30.811Z,14.00
2019-05-17T22:29:59.331Z,14.00
2019-05-17T22:32:27.815Z,14.00
2019-05-17T22:34:56.402Z,13.90
2019-05-17T22:37:25.215Z,13.90
2019-05-17T22:39:53.819Z,13.80
2019-05-17T22:42:22.370Z,13.90
2019-05-17T22:44:50.913Z,14.00
2019-05-17T22:47:19.558Z,14.10
2019-05-17T22:49:48.192Z,14.20
2019-05-17T22:52:16.859Z,14.30
2019-05-17T22:54:45.492Z,14.40
2019-05-17T22:57:14.103Z,14.40
2019-05-17T22:59:42.755Z,14.30
2019-05-17T23:02:11.405Z,14.30
2019-05-17T23:04:40.063Z,14.40
2019-05-17T23:07:08.751Z,14.40
2019-05-17T23:09:37.347Z,14.40
2019-05-17T23:12:05.991Z,14.40
2019-05-17T23:14:34.599Z,14.30
2019-05-17T23:17:03.279Z,14.30
2019-05-17T23:19:31.942Z,14.30
2019-05-17T23:22:00.583Z,14.20
2019-05-17T23:24:29.161Z,14.20
2019-05-17T23:26:57.766Z,14.20
2019-05-17T23:29:26.431Z,14.20
2019-05-17T23:31:55.009Z,14.10
2019-05-17T23:34:23.707Z,14.10
2019-05-17T23:36:52.393Z,14.00
2019-05-17T23:39:21.097Z,14.10
2019-05-17T23:41:49.567Z,14.10
2019-05-17T23:44:18.162Z,14.10
2019-05-17T23:46:46.802Z,14.00
2019-05-17T23:49:15.413Z,14.10
2019-05-17T23:51:44.154Z,14.10
2019-05-17T23:54:12.839Z,14.20
2019-05-17T23:56:41.531Z,14.10
2019-05-17T23:59:10.149Z,14.10
